Haigler, Nebraska
Current Conditions -  °F | °C
As of 6:35 AM on Thursday 30 Oct 2014 (Local Time) from K2V5 Reporting Station
Clear Clear  
Wind Chill: 28°   Ceiling: Unl
Heat Index: 35°   Visibility: 10mi
Dew Point: 26°   Wind: 8mph
Humidity: 71%   Direction: 240°WSW
Pressure: 30.26"   Gusts: NA
Location:  40.01°N, 101.94°W
Report Text: K2V5 301235Z AUTO 24007KT 10SM CLR 01/M03 A3026 RMK AO2 T00141033
Loading
Personal Weather Stations






























Interactive Weather Map
Tropical Storm Tracking
New forecast layout! Learn more

10-Day Weather Forecast

Advertisements
Track Severe Weather on mobile